Weather History for Nebraska City, NE

Change the Weather History Date:

Thursday, February 28, 2013

  Actual Average (KSDA) Record (KSDA)
Temperature  
Mean Temperature 30 °F -  
Max Temperature 32 °F 45 °F 74 °F (1972)
Min Temperature 26 °F 25 °F -15 °F (1962)
Degree Days  
Heating Degree Days 36    
Moisture  
Dew Point 23 °F    
Average Humidity 78    
Maximum Humidity 82    
Minimum Humidity 72    
Precipitation  
Precipitation 0.00 in - - ()
Sea Level Pressure  
Sea Level Pressure 30.17 in    
Wind  
Wind Speed 17 mph (NNW)    
Max Wind Speed 24 mph    
Max Gust Speed 33 mph    
Visibility 10 miles    
Events      
Averages and records for this station are not official NWS values.
T = Trace of Precipitation, MM = Missing Value Source: NWS Daily Summary

Daily Weather History Graph

Daily Weather History Graph

Search for Another Location

Airport:

Trip Planner

Search our weather history database for the weather conditions in past years. The results will help you decide how hot, cold, wet, or windy it might be!

Date:

Astronomy

Feb. 28, 2013 Rise Set
Actual Time 6:58 AM CST 6:14 PM CST
Civil Twilight 6:30 AM CST 6:41 PM CST
Nautical Twilight 5:59 AM CST 7:13 PM CST
Astronomical Twilight 5:27 AM CST 7:44 PM CST
Moon 9:43 PM CST (2/28) 8:07 AM CST (2/28)
Length of Visible Light 12h 10m
Length of Day
11h 15m
Waning Gibbous, 90% of the Moon is Illuminated
Feb 28
Waning Gibbous
Mar 4
Last Quarter
Mar 11
New
Mar 19
First Quarter
Mar 27
Full

Hourly Weather History & Observations

Time (CST) Temp. Windchill Dew Point Humidity Pressure Visibility Wind Dir Wind Speed Gust Speed Precip Events Conditions
12:15 AM 30.6 °F 18.2 °F 24.3 °F 77% 30.08 in 10.0 mi North 19.6 mph 33.4 mph N/A   Overcast
12:35 AM 30.2 °F 17.4 °F 23.9 °F 77% 30.08 in 10.0 mi NNW 20.7 mph 25.3 mph N/A   Overcast
12:55 AM 30.2 °F 16.5 °F 23.9 °F 77% 30.07 in 10.0 mi NNW 24.2 mph 27.6 mph N/A   Overcast
1:15 AM 30.0 °F 17.2 °F 23.9 °F 78% 30.07 in 10.0 mi NNW 20.7 mph 25.3 mph N/A   Overcast
1:35 AM 29.8 °F 17.0 °F 23.9 °F 79% 30.08 in 10.0 mi North 20.7 mph 28.8 mph N/A   Overcast
1:55 AM 29.8 °F 17.7 °F 23.9 °F 79% 30.08 in 10.0 mi North 18.4 mph 25.3 mph N/A   Overcast
2:15 AM 29.3 °F 17.7 °F 23.9 °F 80% 30.09 in 10.0 mi North 16.1 mph 21.9 mph N/A   Overcast
2:35 AM 29.3 °F 16.6 °F 23.7 °F 80% 30.08 in 10.0 mi North 19.6 mph 24.2 mph N/A   Overcast
3:15 AM 28.0 °F 14.9 °F 22.5 °F 80% 30.10 in 10.0 mi North 19.6 mph 25.3 mph N/A   Overcast
3:55 AM 28.4 °F 16.2 °F 22.8 °F 80% 30.11 in 10.0 mi North 17.3 mph 23.0 mph N/A   Overcast
4:35 AM 28.4 °F 15.8 °F 22.8 °F 80% 30.11 in 10.0 mi North 18.4 mph - N/A   Overcast
4:55 AM 28.4 °F 16.6 °F 23.0 °F 80% 30.12 in 10.0 mi North 16.1 mph 21.9 mph N/A   Overcast
5:15 AM 28.4 °F 15.1 °F 23.0 °F 80% 30.12 in 10.0 mi North 20.7 mph 24.2 mph N/A   Overcast
5:35 AM 28.4 °F 16.6 °F 23.0 °F 80% 30.13 in 10.0 mi North 16.1 mph 23.0 mph N/A   Overcast
6:15 AM 28.4 °F 16.2 °F 22.8 °F 80% 30.14 in 10.0 mi North 17.3 mph 25.3 mph N/A   Overcast
6:35 AM 28.2 °F 15.2 °F 22.5 °F 79% 30.14 in 10.0 mi NNW 19.6 mph 25.3 mph N/A   Overcast
6:55 AM 28.2 °F 16.8 °F 22.6 °F 80% 30.15 in 10.0 mi North 15.0 mph 21.9 mph N/A   Overcast
7:15 AM 28.0 °F 16.5 °F 23.0 °F 81% 30.15 in 10.0 mi NNW 15.0 mph 19.6 mph N/A   Overcast
7:35 AM 28.4 °F 17.0 °F 23.0 °F 80% 30.16 in 10.0 mi NNW 15.0 mph 21.9 mph N/A   Overcast
7:55 AM 28.4 °F 17.0 °F 23.2 °F 81% 30.16 in 10.0 mi NNW 15.0 mph - N/A   Overcast
8:15 AM 28.4 °F 17.0 °F 23.4 °F 81% 30.17 in 10.0 mi NNW 15.0 mph 20.7 mph N/A   Overcast
8:35 AM 28.4 °F 16.2 °F 23.4 °F 81% 30.17 in 10.0 mi NNW 17.3 mph 21.9 mph N/A   Overcast
8:55 AM 28.4 °F 17.0 °F 23.2 °F 81% 30.17 in 10.0 mi North 15.0 mph 21.9 mph N/A   Overcast
9:15 AM 28.4 °F 15.4 °F 23.0 °F 80% 30.17 in 10.0 mi North 19.6 mph 24.2 mph N/A   Overcast
9:55 AM 28.4 °F 16.2 °F 23.4 °F 81% 30.18 in 10.0 mi North 17.3 mph 24.2 mph N/A   Overcast
10:15 AM 28.4 °F 16.6 °F 23.5 °F 82% 30.19 in 10.0 mi North 16.1 mph - N/A   Overcast
10:35 AM 28.8 °F 17.0 °F 23.5 °F 81% 30.19 in 10.0 mi North 16.1 mph 20.7 mph N/A   Overcast
10:55 AM 28.8 °F 18.4 °F 23.7 °F 81% 30.19 in 10.0 mi North 12.7 mph 16.1 mph N/A   Overcast
11:15 AM 28.9 °F 17.7 °F 23.7 °F 81% 30.19 in 10.0 mi NNW 15.0 mph - N/A   Overcast
11:35 AM 28.8 °F 16.6 °F 23.5 °F 81% 30.20 in 10.0 mi NNW 17.3 mph - N/A   Overcast
11:55 AM 28.9 °F 16.9 °F 23.5 °F 80% 30.21 in 10.0 mi NNW 17.3 mph 21.9 mph N/A   Overcast
12:15 PM 29.3 °F 18.2 °F 23.9 °F 80% 30.20 in 10.0 mi NNW 15.0 mph - N/A   Overcast
12:35 PM 30.0 °F 18.7 °F 23.9 °F 78% 30.19 in 10.0 mi NNW 16.1 mph 20.7 mph N/A   Overcast
12:55 PM 30.6 °F 19.8 °F 23.9 °F 76% 30.19 in 10.0 mi NW 15.0 mph 19.6 mph N/A   Overcast
1:15 PM 30.7 °F 20.4 °F 24.3 °F 77% 30.19 in 10.0 mi NW 13.8 mph 18.4 mph N/A   Overcast
1:35 PM 30.9 °F 20.2 °F 24.3 °F 76% 30.18 in 10.0 mi NNW 15.0 mph 18.4 mph N/A   Overcast
1:55 PM 30.6 °F 21.2 °F 24.4 °F 78% 30.18 in 10.0 mi NNW 11.5 mph - N/A   Overcast
2:15 PM 30.9 °F 21.2 °F 24.3 °F 76% 30.17 in 10.0 mi NNW 12.7 mph - N/A   Overcast
2:35 PM 30.9 °F 21.2 °F 24.3 °F 76% 30.17 in 10.0 mi North 12.7 mph 16.1 mph N/A   Overcast
3:15 PM 31.5 °F 22.9 °F 24.3 °F 75% 30.18 in 10.0 mi NNW 10.4 mph - N/A   Overcast
3:35 PM 32.0 °F 23.6 °F 24.6 °F 74% 30.18 in 10.0 mi NNW 10.4 mph - N/A   Overcast
3:55 PM 32.0 °F 23.6 °F 24.3 °F 73% 30.17 in 10.0 mi North 10.4 mph - N/A   Overcast
4:15 PM 32.0 °F 22.5 °F 24.6 °F 74% 30.17 in 10.0 mi North 12.7 mph - N/A   Overcast
4:35 PM 32.0 °F 20.8 °F 24.3 °F 73% 30.17 in 10.0 mi NNW 17.3 mph 20.7 mph N/A   Overcast
4:55 PM 31.5 °F 20.9 °F 23.5 °F 73% 30.17 in 10.0 mi North 15.0 mph 18.4 mph N/A   Overcast
5:15 PM 31.1 °F 20.9 °F 23.2 °F 72% 30.18 in 10.0 mi NNW 13.8 mph - N/A   Overcast
5:35 PM 30.6 °F 20.2 °F 22.8 °F 73% 30.18 in 10.0 mi North 13.8 mph - N/A   Overcast
5:55 PM 29.8 °F 18.4 °F 23.0 °F 76% 30.19 in 10.0 mi North 16.1 mph - N/A   Overcast
6:15 PM 29.1 °F 18.9 °F 22.3 °F 76% 30.19 in 10.0 mi North 12.7 mph - N/A   Overcast
6:35 PM 28.4 °F 18.5 °F 22.6 °F 79% 30.20 in 10.0 mi North 11.5 mph - N/A   Overcast
6:55 PM 28.0 °F 17.5 °F 21.2 °F 76% 30.21 in 10.0 mi North 12.7 mph - N/A   Overcast
7:15 PM 28.0 °F 17.0 °F 21.2 °F 76% 30.21 in 10.0 mi NNW 13.8 mph - N/A   Overcast
7:35 PM 27.5 °F 15.9 °F 21.6 °F 78% 30.21 in 10.0 mi NNW 15.0 mph 18.4 mph N/A   Overcast
7:55 PM 27.3 °F 17.1 °F 21.2 °F 78% 30.22 in 10.0 mi NNW 11.5 mph - N/A   Overcast
8:15 PM 27.5 °F 16.8 °F 21.2 °F 77% 30.21 in 10.0 mi NNW 12.7 mph - N/A   Overcast
8:35 PM 27.5 °F 18.0 °F 21.2 °F 77% 30.22 in 10.0 mi NNW 10.4 mph 17.3 mph N/A   Overcast
8:55 PM 27.5 °F 18.6 °F 21.2 °F 77% 30.22 in 10.0 mi NNW 9.2 mph - N/A   Overcast
9:15 PM 27.5 °F 18.6 °F 21.2 °F 77% 30.22 in 10.0 mi NW 9.2 mph - N/A   Overcast
9:35 PM 27.5 °F 18.0 °F 21.2 °F 77% 30.22 in 10.0 mi NW 10.4 mph - N/A   Overcast
10:15 PM 27.1 °F 16.9 °F 21.4 °F 79% 30.21 in 10.0 mi NW 11.5 mph - N/A   Overcast
10:35 PM 27.0 °F 16.7 °F 21.6 °F 80% 30.21 in 10.0 mi NW 11.5 mph - N/A   Overcast
10:55 PM 27.0 °F 16.7 °F 21.2 °F 79% 30.21 in 10.0 mi NNW 11.5 mph - N/A   Overcast
11:15 PM 27.0 °F 17.3 °F 21.2 °F 79% 30.21 in 10.0 mi NNW 10.4 mph - N/A   Overcast
11:35 PM 26.8 °F 19.3 °F 20.7 °F 78% 30.21 in 10.0 mi NNW 6.9 mph - N/A   Overcast